Estación Meteorológica Peña el Pijo (Robertgarden) [ 09/22/18 22:19:34 CEST ]

Fecha Hora Presion(HPa) Temp (°C) Humedad % Rocio (°C) Viento ( m/s) Direccion Lluvia 1Hora(mm) Lluvia 24H(mm) LLuvia Total(mm)
2018-May-11 01:01:52 1009.400 11.9 86 9.6       9.32 214.97
2018-May-11 02:01:53 1009.100 10.7 86 8.4       9.32 214.97
2018-May-11 03:03:13 1008.700 9.7 87 7.6       9.32 214.97
2018-May-11 04:01:57 1008.900 8.3 87 6.3       9.32 214.97
2018-May-11 05:01:43 1008.900 7.2 88 5.4       9.32 214.97
2018-May-11 06:01:55 1009.200 6.5 88 4.7       9.32 214.97
2018-May-11 07:01:40 1009.600 5.8 89 4.1       9.32 214.97
2018-May-11 08:01:38 1010.000 7.2 90 5.7       9.32 214.97
2018-May-11 09:01:43 1009.900 11.3 91 9.9       9.32 214.97
2018-May-11 10:01:48 1009.900 16.9 81 13.6       9.32 214.97
2018-May-11 11:01:47 1009.800 19.5 62 12.0       9.32 214.97
2018-May-11 12:01:49 1009.700 21.9 56 12.7       9.32 214.97
2018-May-11 13:01:43 1009.500 24.5 47 12.4       9.32 214.97
2018-May-11 14:02:10 1009.200 24.0 50 13.1 2.8 NNW   9.32 214.97
2018-May-11 15:01:47 1008.800 25.7 45 12.8 0.4 SSE   3.10 214.97
2018-May-11 16:01:56 1008.500 24.5 47 12.4       0.51 214.97
2018-May-11 17:01:37 1008.300 21.3 64 14.2         214.97
2018-May-11 18:01:32 1008.400 19.9 71 14.5     0.51 0.51 215.48
2018-May-11 19:01:46 1008.100 21.8 58 13.2       0.51 215.48
2018-May-11 20:01:50 1008.300 19.4 66 12.9       0.51 215.48
2018-May-11 21:01:39 1008.700 17.6 73 12.7       0.51 215.48
2018-May-11 22:01:47 1009.200 16.9 77 12.8       0.51 215.48
2018-May-11 23:01:33 1009.800 14.3 79 10.7       0.51 215.48

Temperatura Máxima:25°    Temperatura Mínima:
Presión Máxima:1010.000 Hpa    Presión Mínima:1008.100 Hpa


Volver